createdAt,value
2022-09-28T00:00:13.249Z,60.50
2022-09-28T00:01:13.232Z,55.37
2022-09-28T00:02:13.293Z,56.82
2022-09-28T00:03:13.276Z,63.22
2022-09-28T00:04:13.223Z,60.72
2022-09-28T00:05:13.221Z,55.03
2022-09-28T00:06:13.205Z,55.17
2022-09-28T00:07:13.218Z,61.04
2022-09-28T00:08:13.195Z,68.51
2022-09-28T00:09:13.253Z,54.94
2022-09-28T00:10:13.216Z,63.11
2022-09-28T00:11:13.171Z,59.71
2022-09-28T00:12:13.172Z,61.58
2022-09-28T00:13:13.166Z,55.92
2022-09-28T00:14:13.169Z,59.95
2022-09-28T00:15:13.177Z,60.37
2022-09-28T00:16:13.178Z,55.80
2022-09-28T00:17:13.142Z,55.68
2022-09-28T00:18:13.150Z,55.70
2022-09-28T00:19:13.235Z,55.66
2022-09-28T00:20:13.122Z,56.04
2022-09-28T00:21:14.118Z,61.88
2022-09-28T00:22:13.110Z,60.19
2022-09-28T00:23:13.098Z,56.05
2022-09-28T00:24:13.141Z,66.01
2022-09-28T00:25:13.094Z,56.00
2022-09-28T00:26:13.090Z,60.78
2022-09-28T00:27:13.119Z,55.89
2022-09-28T00:28:13.074Z,66.44
2022-09-28T00:29:13.116Z,61.13
2022-09-28T00:30:13.092Z,61.41
2022-09-28T00:31:13.100Z,56.32
2022-09-28T00:32:13.047Z,59.73
2022-09-28T00:33:13.050Z,61.36
2022-09-28T00:34:13.049Z,65.31
2022-09-28T00:35:13.069Z,57.47
2022-09-28T00:36:13.032Z,60.50
2022-09-28T00:37:13.025Z,60.13
2022-09-28T00:38:13.022Z,58.95
2022-09-28T00:39:13.090Z,54.19
2022-09-28T00:40:13.014Z,54.79
2022-09-28T00:41:13.018Z,59.84
2022-09-28T00:42:12.991Z,55.05
2022-09-28T00:43:12.987Z,54.40
2022-09-28T00:44:12.982Z,60.17
2022-09-28T00:45:12.982Z,54.34
2022-09-28T00:46:13.023Z,54.33
2022-09-28T00:47:12.998Z,54.34
2022-09-28T00:48:12.972Z,54.18
2022-09-28T00:49:12.954Z,56.77
2022-09-28T00:50:12.958Z,57.97
2022-09-28T00:51:12.954Z,54.15
2022-09-28T00:52:12.935Z,58.66
2022-09-28T00:53:12.942Z,54.15
2022-09-28T00:54:12.918Z,54.66
2022-09-28T00:55:12.935Z,64.03
2022-09-28T00:56:12.918Z,55.72
2022-09-28T00:57:12.941Z,56.07
2022-09-28T00:58:12.914Z,56.01
2022-09-28T00:59:12.954Z,55.90
2022-09-28T01:00:12.954Z,55.48
2022-09-28T01:01:12.937Z,55.38
2022-09-28T01:02:12.970Z,55.03
2022-09-28T01:03:12.868Z,65.44
2022-09-28T01:04:12.878Z,54.62
2022-09-28T01:05:12.858Z,54.65
2022-09-28T01:06:12.867Z,54.96
2022-09-28T01:07:12.882Z,55.03
2022-09-28T01:08:12.867Z,62.25
2022-09-28T01:09:12.892Z,56.20
2022-09-28T01:10:12.834Z,54.48
2022-09-28T01:11:12.839Z,54.15
2022-09-28T01:12:12.826Z,60.60
2022-09-28T01:13:12.844Z,55.52
2022-09-28T01:14:12.815Z,60.16
2022-09-28T01:15:12.802Z,61.47
2022-09-28T01:16:12.925Z,63.90
2022-09-28T01:17:12.790Z,56.00
2022-09-28T01:18:12.799Z,59.17
2022-09-28T01:19:12.837Z,56.30
2022-09-28T01:20:12.774Z,55.69
2022-09-28T01:21:12.787Z,56.05
2022-09-28T01:22:12.759Z,55.83
2022-09-28T01:23:12.775Z,60.93
2022-09-28T01:24:12.767Z,56.17
2022-09-28T01:25:12.741Z,56.26
2022-09-28T01:26:12.744Z,60.57
2022-09-28T01:27:13.722Z,62.65
2022-09-28T01:28:12.738Z,64.99
2022-09-28T01:29:12.716Z,55.76
2022-09-28T01:30:12.710Z,56.03
2022-09-28T01:31:12.787Z,59.62
2022-09-28T01:32:13.696Z,55.91
2022-09-28T01:33:12.695Z,55.67
2022-09-28T01:34:12.724Z,55.09
2022-09-28T01:35:12.684Z,56.02
2022-09-28T01:36:12.671Z,57.03
2022-09-28T01:37:12.699Z,66.14
2022-09-28T01:38:12.679Z,55.18
2022-09-28T01:39:12.655Z,59.30
2022-09-28T01:40:12.644Z,60.95
2022-09-28T01:41:12.664Z,54.65
2022-09-28T01:42:12.694Z,54.87
2022-09-28T01:43:12.632Z,55.04
2022-09-28T01:44:12.647Z,54.98
2022-09-28T01:45:12.611Z,67.77
2022-09-28T01:46:12.718Z,63.21
2022-09-28T01:47:12.614Z,54.84
2022-09-28T01:48:12.619Z,54.97
2022-09-28T01:49:12.651Z,59.91
2022-09-28T01:50:12.591Z,58.27
2022-09-28T01:51:12.591Z,54.93
2022-09-28T01:52:12.580Z,60.40
2022-09-28T01:53:12.582Z,59.46
2022-09-28T01:54:12.579Z,54.97
2022-09-28T01:55:12.560Z,54.72
2022-09-28T01:56:12.567Z,63.23
2022-09-28T01:57:12.542Z,54.90
2022-09-28T01:58:12.544Z,55.94
2022-09-28T01:59:12.543Z,54.65
2022-09-28T02:00:12.566Z,63.97
2022-09-28T02:01:12.566Z,56.83
2022-09-28T02:02:12.591Z,57.26
2022-09-28T02:03:13.531Z,54.68
2022-09-28T02:04:12.503Z,54.69
2022-09-28T02:05:12.527Z,59.26
2022-09-28T02:06:12.494Z,61.16
2022-09-28T02:07:12.504Z,54.10
2022-09-28T02:08:12.488Z,55.56
2022-09-28T02:09:12.490Z,61.00
2022-09-28T02:10:12.471Z,59.92
2022-09-28T02:11:12.478Z,56.92
2022-09-28T02:12:12.486Z,62.23
2022-09-28T02:13:44.907Z,65.93
2022-09-28T02:14:12.448Z,58.63
2022-09-28T02:15:12.442Z,58.70
2022-09-28T02:16:12.458Z,60.03
2022-09-28T02:17:12.465Z,59.31
2022-09-28T02:18:12.439Z,59.58
2022-09-28T02:19:12.427Z,67.02
2022-09-28T02:20:12.412Z,61.99
2022-09-28T02:21:12.423Z,60.07
2022-09-28T02:22:12.419Z,69.59
2022-09-28T02:23:12.407Z,60.19
2022-09-28T02:24:12.407Z,59.57
2022-09-28T02:25:12.383Z,59.76
2022-09-28T02:26:12.384Z,59.66
2022-09-28T02:27:12.386Z,67.74
2022-09-28T02:28:12.356Z,63.80
2022-09-28T02:29:12.360Z,67.86
2022-09-28T02:30:12.352Z,59.31
2022-09-28T02:31:12.389Z,70.13
2022-09-28T02:32:12.355Z,61.10
2022-09-28T02:33:12.322Z,68.39
2022-09-28T02:34:12.372Z,60.72
2022-09-28T02:35:12.319Z,67.87
2022-09-28T02:36:12.313Z,64.75
2022-09-28T02:37:12.315Z,59.50
2022-09-28T02:38:12.311Z,60.45
2022-09-28T02:39:12.302Z,65.85
2022-09-28T02:40:12.289Z,57.90
2022-09-28T02:41:12.277Z,57.30
2022-09-28T02:42:12.291Z,56.81
2022-09-28T02:43:12.284Z,56.79
2022-09-28T02:44:12.265Z,59.02
2022-09-28T02:45:12.273Z,60.64
2022-09-28T02:46:12.291Z,66.59
2022-09-28T02:47:12.244Z,57.96
2022-09-28T02:48:12.256Z,67.26
2022-09-28T02:49:22.751Z,66.85
2022-09-28T02:50:14.235Z,66.13
2022-09-28T02:51:12.230Z,63.96
2022-09-28T02:52:12.214Z,61.69
2022-09-28T02:53:12.231Z,59.82
2022-09-28T02:54:16.674Z,64.90
2022-09-28T02:55:14.194Z,61.08
2022-09-28T02:56:12.189Z,68.92
2022-09-28T02:57:12.181Z,56.51
2022-09-28T02:58:12.198Z,64.12
2022-09-28T02:59:12.169Z,67.87
2022-09-28T03:00:12.170Z,64.11
2022-09-28T03:01:12.189Z,72.34
2022-09-28T03:02:12.206Z,63.89
2022-09-28T03:03:12.204Z,63.17
2022-09-28T03:04:12.149Z,64.17
2022-09-28T03:05:12.140Z,64.92
2022-09-28T03:06:12.132Z,66.57
2022-09-28T03:07:12.148Z,58.81
2022-09-28T03:08:12.133Z,62.81
2022-09-28T03:09:12.116Z,68.77
2022-09-28T03:10:12.109Z,66.21
2022-09-28T03:11:12.106Z,70.05
2022-09-28T03:12:12.092Z,70.70
2022-09-28T03:13:12.087Z,69.55
2022-09-28T03:14:12.108Z,56.83
2022-09-28T03:15:12.080Z,70.19
2022-09-28T03:16:12.206Z,66.09
2022-09-28T03:17:12.732Z,63.12
2022-09-28T03:18:12.061Z,64.73
2022-09-28T03:19:12.074Z,70.12
2022-09-28T03:20:12.054Z,66.37
2022-09-28T03:21:12.071Z,61.65
2022-09-28T03:22:12.040Z,66.74
2022-09-28T03:23:24.227Z,68.79
2022-09-28T03:24:14.100Z,68.99
2022-09-28T03:25:12.032Z,70.68
2022-09-28T03:26:12.005Z,64.90
2022-09-28T03:27:12.045Z,57.36
2022-09-28T03:28:11.996Z,62.72
2022-09-28T03:29:12.001Z,68.95
2022-09-28T03:30:12.000Z,71.86
2022-09-28T03:31:12.025Z,72.04
2022-09-28T03:32:11.969Z,68.72
2022-09-28T03:33:11.976Z,68.54
2022-09-28T03:34:11.976Z,73.64
2022-09-28T03:35:11.960Z,73.94
2022-09-28T03:36:12.009Z,70.69
2022-09-28T03:37:11.944Z,72.00
2022-09-28T03:38:11.952Z,69.02
2022-09-28T03:39:11.956Z,69.91
2022-09-28T03:40:12.944Z,67.96
2022-09-28T03:41:11.936Z,70.98
2022-09-28T03:42:11.942Z,71.38
2022-09-28T03:43:11.913Z,70.70
2022-09-28T03:44:11.904Z,66.00
2022-09-28T03:45:11.948Z,74.04
2022-09-28T03:46:12.294Z,72.59
2022-09-28T03:47:11.892Z,72.65
2022-09-28T03:48:11.917Z,67.47
2022-09-28T03:49:11.874Z,70.83
2022-09-28T03:50:11.864Z,72.16
2022-09-28T03:51:11.874Z,73.48
2022-09-28T03:52:11.876Z,69.19
2022-09-28T03:53:11.864Z,73.13
2022-09-28T03:54:11.836Z,67.66
2022-09-28T03:55:11.843Z,70.53
2022-09-28T03:56:11.856Z,68.16
2022-09-28T03:57:11.820Z,66.56
2022-09-28T03:58:11.821Z,72.25
2022-09-28T03:59:11.827Z,75.50
2022-09-28T04:00:11.804Z,57.93
2022-09-28T04:01:16.411Z,67.95
2022-09-28T04:02:13.825Z,68.26
2022-09-28T04:03:11.794Z,69.30
2022-09-28T04:04:11.782Z,71.13
2022-09-28T04:05:11.786Z,72.57
2022-09-28T04:06:11.822Z,70.08
2022-09-28T04:07:11.768Z,72.79
2022-09-28T04:08:11.762Z,76.77
2022-09-28T04:09:11.761Z,74.14
2022-09-28T04:10:11.737Z,72.85
2022-09-28T04:11:11.756Z,77.55
2022-09-28T04:12:11.751Z,73.77
2022-09-28T04:13:11.725Z,69.37
2022-09-28T04:14:11.714Z,73.47
2022-09-28T04:15:11.723Z,71.83
2022-09-28T04:16:11.788Z,70.64
2022-09-28T04:17:11.725Z,74.55
2022-09-28T04:18:11.710Z,67.85
2022-09-28T04:19:11.719Z,74.57
2022-09-28T04:20:11.676Z,72.42
2022-09-28T04:21:11.685Z,71.51
2022-09-28T04:22:11.713Z,74.43
2022-09-28T04:23:11.677Z,72.60
2022-09-28T04:24:12.210Z,73.57
2022-09-28T04:25:11.681Z,76.91
2022-09-28T04:26:11.661Z,73.42
2022-09-28T04:27:11.652Z,73.43
2022-09-28T04:28:11.639Z,73.74
2022-09-28T04:29:11.739Z,71.64
2022-09-28T04:30:11.624Z,71.39
2022-09-28T04:31:11.719Z,72.09
2022-09-28T04:32:11.627Z,79.72
2022-09-28T04:33:11.615Z,75.52
2022-09-28T04:34:11.620Z,78.04
2022-09-28T04:35:11.603Z,75.65
2022-09-28T04:36:11.588Z,73.13
2022-09-28T04:37:11.592Z,73.14
2022-09-28T04:38:11.587Z,76.57
2022-09-28T04:39:11.628Z,74.82
2022-09-28T04:40:11.620Z,76.82
2022-09-28T04:41:11.616Z,75.50
2022-09-28T04:42:11.569Z,76.61
2022-09-28T04:43:12.229Z,76.89
2022-09-28T04:44:11.565Z,77.08
2022-09-28T04:45:14.250Z,77.54
2022-09-28T04:46:11.621Z,76.06
2022-09-28T04:47:11.553Z,79.07
2022-09-28T04:48:11.595Z,74.12
2022-09-28T04:49:11.659Z,77.08
2022-09-28T04:50:11.519Z,75.67
2022-09-28T04:51:11.518Z,76.88
2022-09-28T04:52:17.180Z,74.27
2022-09-28T04:53:13.549Z,77.03
2022-09-28T04:54:11.530Z,77.33
2022-09-28T04:55:11.498Z,76.82
2022-09-28T04:56:11.526Z,72.73
2022-09-28T04:57:11.531Z,70.15
2022-09-28T04:58:11.485Z,72.35
2022-09-28T04:59:11.465Z,77.85
2022-09-28T05:00:11.469Z,77.26
2022-09-28T05:01:11.497Z,76.05
2022-09-28T05:02:11.517Z,72.90
2022-09-28T05:03:11.433Z,72.64
2022-09-28T05:04:11.452Z,78.16
2022-09-28T05:05:11.448Z,73.44
2022-09-28T05:06:11.422Z,71.26
2022-09-28T05:07:11.423Z,77.96
2022-09-28T05:08:11.420Z,70.56
2022-09-28T05:09:11.403Z,75.30
2022-09-28T05:10:11.419Z,75.34
2022-09-28T05:11:11.403Z,74.36
2022-09-28T05:12:11.392Z,75.91
2022-09-28T05:13:11.388Z,73.02
2022-09-28T05:14:11.374Z,76.50
2022-09-28T05:15:11.382Z,76.88
2022-09-28T05:16:11.382Z,76.54
2022-09-28T05:17:11.365Z,74.95
2022-09-28T05:18:11.355Z,72.43
2022-09-28T05:19:11.347Z,74.68
2022-09-28T05:20:11.347Z,73.79
2022-09-28T05:21:11.413Z,72.50
2022-09-28T05:22:11.395Z,74.30
2022-09-28T05:23:11.332Z,76.60
2022-09-28T05:24:11.327Z,74.50
2022-09-28T05:25:11.344Z,77.46
2022-09-28T05:26:11.332Z,73.82
2022-09-28T05:27:11.297Z,78.84
2022-09-28T05:28:11.315Z,72.67
2022-09-28T05:29:11.287Z,74.84
2022-09-28T05:30:12.307Z,75.68
2022-09-28T05:31:11.283Z,76.68
2022-09-28T05:32:11.336Z,77.18
2022-09-28T05:33:11.278Z,78.29
2022-09-28T05:34:11.280Z,74.59
2022-09-28T05:35:11.266Z,76.62
2022-09-28T05:36:11.272Z,77.25
2022-09-28T05:37:11.248Z,69.72
2022-09-28T05:38:11.243Z,76.75
2022-09-28T05:39:11.300Z,73.76
2022-09-28T05:40:11.254Z,76.31
2022-09-28T05:41:11.266Z,74.43
2022-09-28T05:42:11.211Z,78.16
2022-09-28T05:43:11.225Z,75.85
2022-09-28T05:44:12.195Z,73.55
2022-09-28T05:45:11.295Z,74.52
2022-09-28T05:46:11.284Z,76.64
2022-09-28T05:47:11.204Z,75.30
2022-09-28T05:48:11.175Z,74.03
2022-09-28T05:49:11.211Z,74.77
2022-09-28T05:50:11.218Z,75.00
2022-09-28T05:51:12.245Z,74.25
2022-09-28T05:52:11.155Z,76.60
2022-09-28T05:53:11.168Z,73.56
2022-09-28T05:54:11.183Z,71.03
2022-09-28T05:55:11.150Z,74.75
2022-09-28T05:56:11.136Z,78.01
2022-09-28T05:57:11.153Z,70.63
2022-09-28T05:58:11.140Z,72.97
2022-09-28T05:59:11.157Z,77.21
2022-09-28T06:00:11.137Z,72.32
2022-09-28T06:01:11.286Z,67.54
2022-09-28T06:02:11.158Z,75.98
2022-09-28T06:03:11.108Z,76.88
2022-09-28T06:04:11.205Z,76.47
2022-09-28T06:05:11.108Z,70.92
2022-09-28T06:06:11.079Z,73.69
2022-09-28T06:07:11.095Z,69.25
2022-09-28T06:08:11.073Z,76.94
2022-09-28T06:09:11.084Z,73.36
2022-09-28T06:10:11.069Z,72.33
2022-09-28T06:11:11.047Z,71.16
2022-09-28T06:12:11.048Z,75.17
2022-09-28T06:13:11.052Z,70.39
2022-09-28T06:14:11.116Z,73.99
2022-09-28T06:15:11.030Z,74.37
2022-09-28T06:16:11.055Z,72.93
2022-09-28T06:17:11.027Z,70.88
2022-09-28T06:18:11.039Z,75.62
2022-09-28T06:19:11.028Z,72.49
2022-09-28T06:20:11.027Z,72.94
2022-09-28T06:21:11.003Z,73.95
2022-09-28T06:22:10.984Z,78.61
2022-09-28T06:23:10.980Z,75.06
2022-09-28T06:24:11.038Z,72.09
2022-09-28T06:25:10.985Z,68.67
2022-09-28T06:26:10.960Z,70.72
2022-09-28T06:27:10.978Z,78.45
2022-09-28T06:28:10.966Z,74.52
2022-09-28T06:29:12.825Z,75.16
2022-09-28T06:30:11.955Z,67.03
2022-09-28T06:31:11.008Z,75.40
2022-09-28T06:32:10.919Z,70.86
2022-09-28T06:33:10.947Z,70.59
2022-09-28T06:34:10.956Z,78.18
2022-09-28T06:35:10.915Z,78.04
2022-09-28T06:36:10.927Z,73.65
2022-09-28T06:37:11.588Z,72.89
2022-09-28T06:38:10.899Z,76.21
2022-09-28T06:39:10.905Z,74.42
2022-09-28T06:40:10.899Z,76.84
2022-09-28T06:41:10.883Z,69.88
2022-09-28T06:42:10.918Z,72.77
2022-09-28T06:43:10.888Z,75.70
2022-09-28T06:44:10.962Z,76.01
2022-09-28T06:45:10.923Z,65.04
2022-09-28T06:46:10.943Z,72.57
2022-09-28T06:47:10.834Z,76.07
2022-09-28T06:48:10.851Z,73.85
2022-09-28T06:49:10.834Z,75.54
2022-09-28T06:50:10.840Z,73.35
2022-09-28T06:51:10.826Z,74.64
2022-09-28T06:52:10.810Z,74.37
2022-09-28T06:53:10.816Z,77.10
2022-09-28T06:54:10.849Z,72.02
2022-09-28T06:55:10.799Z,72.99
2022-09-28T06:56:10.809Z,74.11
2022-09-28T06:57:10.779Z,67.64
2022-09-28T06:58:10.781Z,75.54
2022-09-28T06:59:10.783Z,66.86
2022-09-28T07:00:10.806Z,68.38
2022-09-28T07:01:10.874Z,71.20
2022-09-28T07:02:10.939Z,71.55
2022-09-28T07:03:10.747Z,75.09
2022-09-28T07:04:10.757Z,69.86
2022-09-28T07:05:10.758Z,68.26
2022-09-28T07:06:10.760Z,70.08
2022-09-28T07:07:10.747Z,73.00
2022-09-28T07:08:10.778Z,73.13
2022-09-28T07:09:30.101Z,73.99
2022-09-28T07:10:12.698Z,71.30
2022-09-28T07:11:10.723Z,71.65
2022-09-28T07:12:10.706Z,71.48
2022-09-28T07:13:29.275Z,69.92
2022-09-28T07:14:23.194Z,72.46
2022-09-28T07:15:12.679Z,69.62
2022-09-28T07:16:10.738Z,65.13
2022-09-28T07:17:14.282Z,65.66
2022-09-28T07:18:11.668Z,71.05
2022-09-28T07:19:10.642Z,73.04
2022-09-28T07:20:18.071Z,68.96
2022-09-28T07:21:25.095Z,71.41
2022-09-28T07:22:17.447Z,75.97
2022-09-28T07:23:19.470Z,75.14
2022-09-28T07:24:12.613Z,73.76
2022-09-28T07:25:10.610Z,68.22
2022-09-28T07:26:10.598Z,74.59
2022-09-28T07:27:10.610Z,69.95
2022-09-28T07:28:10.766Z,70.90
2022-09-28T07:29:10.580Z,68.34
2022-09-28T07:30:10.592Z,72.49
2022-09-28T07:31:10.650Z,68.10
2022-09-28T07:32:10.557Z,73.67
2022-09-28T07:33:10.577Z,74.38
2022-09-28T07:34:10.670Z,66.66
2022-09-28T07:35:10.543Z,66.54
2022-09-28T07:36:10.525Z,66.94
2022-09-28T07:37:10.528Z,72.15
2022-09-28T07:38:10.517Z,73.24
2022-09-28T07:39:10.516Z,72.97
2022-09-28T07:40:10.610Z,69.98
2022-09-28T07:41:10.631Z,77.59
2022-09-28T07:42:10.483Z,74.40
2022-09-28T07:43:10.485Z,70.98
2022-09-28T07:44:11.488Z,72.38
2022-09-28T07:45:10.484Z,76.87
2022-09-28T07:46:10.526Z,74.35
2022-09-28T07:47:10.506Z,73.67
2022-09-28T07:49:12.383Z,73.96
2022-09-28T07:50:10.461Z,72.67
2022-09-28T07:51:10.437Z,72.17
2022-09-28T07:52:10.425Z,70.68
2022-09-28T07:53:10.413Z,68.52
2022-09-28T07:54:10.420Z,69.06
2022-09-28T07:55:11.436Z,72.39
2022-09-28T07:56:10.393Z,66.91
2022-09-28T07:57:10.475Z,73.63
2022-09-28T07:58:10.389Z,71.06
2022-09-28T07:59:10.394Z,71.58
2022-09-28T08:00:10.415Z,72.40
2022-09-28T08:01:10.547Z,71.60
2022-09-28T08:02:10.411Z,75.48
2022-09-28T08:03:10.347Z,73.90
2022-09-28T08:04:10.344Z,72.15
2022-09-28T08:05:10.343Z,75.68
2022-09-28T08:06:10.363Z,74.75
2022-09-28T08:07:10.324Z,73.27
2022-09-28T08:08:10.364Z,68.71
2022-09-28T08:09:10.355Z,70.43
2022-09-28T08:10:10.341Z,68.52
2022-09-28T08:11:10.296Z,73.77
2022-09-28T08:12:10.349Z,70.01
2022-09-28T08:13:10.272Z,70.93
2022-09-28T08:14:36.700Z,72.85
2022-09-28T08:15:10.265Z,63.35
2022-09-28T08:16:10.300Z,74.44
2022-09-28T08:17:10.280Z,73.67
2022-09-28T08:18:10.248Z,72.95
2022-09-28T08:19:10.268Z,71.38
2022-09-28T08:20:10.268Z,72.44
2022-09-28T08:21:11.220Z,73.09
2022-09-28T08:22:10.215Z,72.12
2022-09-28T08:23:10.224Z,69.86
2022-09-28T08:24:10.251Z,68.96
2022-09-28T08:25:10.182Z,71.12
2022-09-28T08:26:15.255Z,72.50
2022-09-28T08:27:12.195Z,71.22
2022-09-28T08:28:10.188Z,69.27
2022-09-28T08:29:10.171Z,69.60
2022-09-28T08:30:10.214Z,73.81
2022-09-28T08:31:10.220Z,73.49
2022-09-28T08:32:10.145Z,76.73
2022-09-28T08:33:10.143Z,73.35
2022-09-28T08:34:10.174Z,73.38
2022-09-28T08:35:10.140Z,73.61
2022-09-28T08:36:10.164Z,72.48
2022-09-28T08:37:10.107Z,69.96
2022-09-28T08:38:10.102Z,72.26
2022-09-28T08:39:10.097Z,70.74
2022-09-28T08:40:10.159Z,72.98
2022-09-28T08:41:10.169Z,71.23
2022-09-28T08:42:10.068Z,71.57
2022-09-28T08:43:10.087Z,71.35
2022-09-28T08:44:10.161Z,72.83
2022-09-28T08:45:10.072Z,74.48
2022-09-28T08:46:10.108Z,73.49
2022-09-28T08:47:10.074Z,72.39
2022-09-28T08:48:10.058Z,72.35
2022-09-28T08:49:30.678Z,72.32
2022-09-28T08:50:12.027Z,76.83
2022-09-28T08:51:10.020Z,72.71
2022-09-28T08:52:10.025Z,74.20
2022-09-28T08:53:10.005Z,72.49
2022-09-28T08:54:11.892Z,75.16
2022-09-28T08:55:09.990Z,73.85
2022-09-28T08:56:10.029Z,72.44
2022-09-28T08:57:09.972Z,73.34
2022-09-28T08:58:09.993Z,76.11
2022-09-28T08:59:09.993Z,69.37
2022-09-28T09:00:11.826Z,73.16
2022-09-28T09:01:10.029Z,76.27
2022-09-28T09:02:10.026Z,75.78
2022-09-28T09:03:09.956Z,75.75
2022-09-28T09:04:09.913Z,75.68
2022-09-28T09:05:10.918Z,69.41
2022-09-28T09:06:09.905Z,74.11
2022-09-28T09:07:09.950Z,69.35
2022-09-28T09:08:09.929Z,75.14
2022-09-28T09:09:09.892Z,73.95
2022-09-28T09:10:09.887Z,74.89
2022-09-28T09:11:09.883Z,75.02
2022-09-28T09:12:09.860Z,75.25
2022-09-28T09:13:09.872Z,75.01
2022-09-28T09:14:09.886Z,75.00
2022-09-28T09:15:09.918Z,75.90
2022-09-28T09:16:09.857Z,73.59
2022-09-28T09:17:09.831Z,75.37
2022-09-28T09:18:09.840Z,76.50
2022-09-28T09:19:09.852Z,74.52
2022-09-28T09:20:09.811Z,73.04
2022-09-28T09:21:09.810Z,75.43
2022-09-28T09:22:09.800Z,74.87
2022-09-28T09:23:09.799Z,75.39
2022-09-28T09:24:09.784Z,76.63
2022-09-28T09:25:09.787Z,72.34
2022-09-28T09:26:09.799Z,70.76
2022-09-28T09:27:09.768Z,71.94
2022-09-28T09:28:09.768Z,74.14
2022-09-28T09:29:09.751Z,75.05
2022-09-28T09:30:09.741Z,73.01
2022-09-28T09:31:09.811Z,76.82
2022-09-28T09:32:09.744Z,72.82
2022-09-28T09:33:09.738Z,73.47
2022-09-28T09:34:09.703Z,74.14
2022-09-28T09:35:10.713Z,75.24
2022-09-28T09:36:09.739Z,75.11
2022-09-28T09:37:09.702Z,75.57
2022-09-28T09:38:09.683Z,76.01
2022-09-28T09:39:09.736Z,70.69
2022-09-28T09:40:09.714Z,74.09
2022-09-28T09:41:09.753Z,72.60
2022-09-28T09:42:09.670Z,74.14
2022-09-28T09:43:09.663Z,74.64
2022-09-28T09:44:09.753Z,72.02
2022-09-28T09:45:09.671Z,75.41
2022-09-28T09:46:09.716Z,73.37
2022-09-28T09:47:09.677Z,75.49
2022-09-28T09:48:09.637Z,74.38
2022-09-28T09:49:09.668Z,74.78
2022-09-28T09:50:09.662Z,75.18
2022-09-28T09:51:09.636Z,73.86
2022-09-28T09:52:09.638Z,72.77
2022-09-28T09:53:09.753Z,72.59
2022-09-28T09:54:09.610Z,73.03
2022-09-28T09:55:09.607Z,73.27
2022-09-28T09:56:09.603Z,75.25
2022-09-28T09:57:09.583Z,72.76
2022-09-28T09:58:09.582Z,72.83
2022-09-28T09:59:09.584Z,76.28
2022-09-28T10:00:09.562Z,77.09
2022-09-28T10:01:09.627Z,67.50
2022-09-28T10:02:11.799Z,77.31
2022-09-28T10:03:10.590Z,74.97
2022-09-28T10:04:09.554Z,75.21
2022-09-28T10:05:09.553Z,67.88
2022-09-28T10:06:09.521Z,73.50
2022-09-28T10:07:09.521Z,72.40
2022-09-28T10:08:09.510Z,74.47
2022-09-28T10:09:09.513Z,77.98
2022-09-28T10:10:09.508Z,76.47
2022-09-28T10:11:09.492Z,75.07
2022-09-28T10:12:09.489Z,74.75
2022-09-28T10:13:09.472Z,73.56
2022-09-28T10:14:09.467Z,73.74
2022-09-28T10:15:09.473Z,73.08
2022-09-28T10:16:09.459Z,77.55
2022-09-28T10:17:09.633Z,73.45
2022-09-28T10:18:09.468Z,72.21
2022-09-28T10:19:09.449Z,74.71
2022-09-28T10:20:09.428Z,74.18
2022-09-28T10:21:09.421Z,72.68
2022-09-28T10:22:09.429Z,74.35
2022-09-28T10:23:09.432Z,72.60
2022-09-28T10:24:09.404Z,73.51
2022-09-28T10:25:09.428Z,72.54
2022-09-28T10:26:09.424Z,76.40
2022-09-28T10:27:09.368Z,73.93
2022-09-28T10:28:09.389Z,75.00
2022-09-28T10:29:09.404Z,73.15
2022-09-28T10:30:09.377Z,69.82
2022-09-28T10:32:09.350Z,71.93
2022-09-28T10:33:09.390Z,74.05
2022-09-28T10:34:09.358Z,74.71
2022-09-28T10:35:09.345Z,72.81
2022-09-28T10:36:09.322Z,75.00
2022-09-28T10:37:09.343Z,71.24
2022-09-28T10:38:09.326Z,65.46
2022-09-28T10:39:09.306Z,71.40
2022-09-28T10:40:09.301Z,71.76
2022-09-28T10:41:09.322Z,71.31
2022-09-28T10:42:09.288Z,72.66
2022-09-28T10:43:09.296Z,74.25
2022-09-28T10:44:09.364Z,73.73
2022-09-28T10:45:09.280Z,72.63
2022-09-28T10:46:09.358Z,71.52
2022-09-28T10:47:09.252Z,72.26
2022-09-28T10:48:09.253Z,72.19
2022-09-28T10:49:09.258Z,74.30
2022-09-28T10:50:09.236Z,71.89
2022-09-28T10:51:09.236Z,69.65
2022-09-28T10:52:09.235Z,72.11
2022-09-28T10:53:09.220Z,69.77
2022-09-28T10:54:09.226Z,74.35
2022-09-28T10:55:09.211Z,72.99
2022-09-28T10:56:09.195Z,68.21
2022-09-28T10:57:13.301Z,68.80
2022-09-28T10:58:10.199Z,71.11
2022-09-28T10:59:09.202Z,71.70
2022-09-28T11:00:09.182Z,72.51
2022-09-28T11:01:09.290Z,71.59
2022-09-28T11:02:09.285Z,75.01
2022-09-28T11:03:09.163Z,72.68
2022-09-28T11:04:09.195Z,69.32
2022-09-28T11:05:09.147Z,73.12
2022-09-28T11:06:09.156Z,72.67
2022-09-28T11:07:09.117Z,61.17
2022-09-28T11:08:09.114Z,72.01
2022-09-28T11:09:09.098Z,68.41
2022-09-28T11:10:09.129Z,74.84
2022-09-28T11:11:09.089Z,71.48
2022-09-28T11:12:09.117Z,72.34
2022-09-28T11:13:09.097Z,70.69
2022-09-28T11:14:09.089Z,74.00
2022-09-28T11:15:09.114Z,72.70
2022-09-28T11:16:09.083Z,72.79
2022-09-28T11:17:09.110Z,70.72
2022-09-28T11:18:09.093Z,72.03
2022-09-28T11:19:09.052Z,71.29
2022-09-28T11:20:09.069Z,70.78
2022-09-28T11:21:12.556Z,74.65
2022-09-28T11:22:13.058Z,75.27
2022-09-28T11:23:10.025Z,70.41
2022-09-28T11:24:09.017Z,70.36
2022-09-28T11:25:09.024Z,71.51
2022-09-28T11:26:09.089Z,72.42
2022-09-28T11:27:09.020Z,69.69
2022-09-28T11:28:09.001Z,71.31
2022-09-28T11:29:08.991Z,71.74
2022-09-28T11:30:09.007Z,74.01
2022-09-28T11:31:09.070Z,70.48
2022-09-28T11:32:12.421Z,72.75
2022-09-28T11:33:09.964Z,74.49
2022-09-28T11:34:08.969Z,73.85
2022-09-28T11:35:08.956Z,72.94
2022-09-28T11:36:08.951Z,72.56
2022-09-28T11:37:09.769Z,71.79
2022-09-28T11:38:08.972Z,72.78
2022-09-28T11:39:08.976Z,75.06
2022-09-28T11:40:08.916Z,74.52
2022-09-28T11:41:08.909Z,71.70
2022-09-28T11:42:10.982Z,73.18
2022-09-28T11:43:10.725Z,73.80
2022-09-28T11:44:08.928Z,77.75
2022-09-28T11:45:08.975Z,75.18
2022-09-28T11:46:08.959Z,72.02
2022-09-28T11:47:08.894Z,72.19
2022-09-28T11:48:08.931Z,73.34
2022-09-28T11:49:08.874Z,73.96
2022-09-28T11:50:08.856Z,75.22
2022-09-28T11:51:08.865Z,73.81
2022-09-28T11:52:08.834Z,76.30
2022-09-28T11:53:08.918Z,76.10
2022-09-28T11:54:08.819Z,74.22
2022-09-28T11:55:08.810Z,71.05
2022-09-28T11:56:09.260Z,74.35
2022-09-28T11:57:09.806Z,72.34
2022-09-28T11:58:08.978Z,72.03
2022-09-28T11:59:08.805Z,76.61
2022-09-28T12:00:08.786Z,74.27
2022-09-28T12:01:09.774Z,72.60
2022-09-28T12:02:08.903Z,76.99
2022-09-28T12:03:08.916Z,72.52
2022-09-28T12:04:08.760Z,73.72
2022-09-28T12:05:08.765Z,72.39
2022-09-28T12:06:08.904Z,73.87
2022-09-28T12:07:08.736Z,69.48
2022-09-28T12:08:08.728Z,68.44
2022-09-28T12:09:09.810Z,73.30
2022-09-28T12:10:08.750Z,74.07
2022-09-28T12:11:08.734Z,73.61
2022-09-28T12:12:09.801Z,74.72
2022-09-28T12:13:08.697Z,74.62
2022-09-28T12:14:08.699Z,74.33
2022-09-28T12:15:08.703Z,73.30
2022-09-28T12:16:27.565Z,66.17
2022-09-28T12:17:10.750Z,71.61
2022-09-28T12:18:08.724Z,70.83
2022-09-28T12:19:08.680Z,74.26
2022-09-28T12:20:08.675Z,72.94
2022-09-28T12:21:08.665Z,72.68
2022-09-28T12:22:08.785Z,71.90
2022-09-28T12:23:08.650Z,74.52
2022-09-28T12:24:08.624Z,72.16
2022-09-28T12:25:08.636Z,73.60
2022-09-28T12:26:08.610Z,72.70
2022-09-28T12:27:08.657Z,74.81
2022-09-28T12:28:08.617Z,73.98
2022-09-28T12:29:08.593Z,74.36
2022-09-28T12:30:08.579Z,69.43
2022-09-28T12:31:08.665Z,74.69
2022-09-28T12:32:08.592Z,72.91
2022-09-28T12:33:08.561Z,72.91
2022-09-28T12:34:08.564Z,72.07
2022-09-28T12:35:08.540Z,72.78
2022-09-28T12:36:08.563Z,75.56
2022-09-28T12:37:08.572Z,71.51
2022-09-28T12:38:09.263Z,73.97
2022-09-28T12:39:19.155Z,71.06
2022-09-28T12:40:10.532Z,73.04
2022-09-28T12:41:08.525Z,73.89
2022-09-28T12:42:08.518Z,76.05
2022-09-28T12:43:08.546Z,74.19
2022-09-28T12:44:08.510Z,74.55
2022-09-28T12:45:08.525Z,73.69
2022-09-28T12:46:12.877Z,70.67
2022-09-28T12:47:09.553Z,74.98
2022-09-28T12:48:09.332Z,74.95
2022-09-28T12:51:10.477Z,76.12
2022-09-28T12:52:08.475Z,75.03
2022-09-28T12:53:08.465Z,76.88
2022-09-28T12:54:08.464Z,77.01
2022-09-28T12:56:08.426Z,77.18
2022-09-28T12:57:08.497Z,75.73